Time;durP1;ratioP1;P1;durP2;ratioP2;P2;SDS_P1;SDS_P2;PMS_P1;PMS_P2;Temp;Humidity;BMP_temperature;BMP_pressure;BME280_temperature;BME280_humidity;BME280_pressure;Samples;Min_cycle;Max_cycle;Signal;HPM_P1;HPM_P2
2022/10/09 00:16:45;;;;;;;10.93;3.58;;;;;;;5.72;100.00;102400.75;5135210;27;20211;-87
2022/10/09 00:22:47;;;;;;;9.50;3.97;;;;;;;5.69;100.00;102392.97;5135155;27;20084;-88
2022/10/09 00:32:00;;;;;;;13.63;4.35;;;;;;;5.65;100.00;102405.00;5134667;27;20042;-87
2022/10/09 00:34:26;;;;;;;9.67;4.30;;;;;;;5.59;100.00;102398.34;5116786;27;20019;-87
2022/10/09 01:27:43;;;;;;;9.38;4.03;;;;;;;5.15;100.00;102388.03;5119529;28;20036;-87
2022/10/09 02:37:00;;;;;;;12.20;5.47;;;;;;;4.51;100.00;102333.78;5137089;27;20050;-87
2022/10/09 03:06:56;;;;;;;13.63;5.20;;;;;;;4.31;100.00;102322.16;5135905;27;20027;-87
2022/10/09 04:08:03;;;;;;;13.93;5.65;;;;;;;4.09;100.00;102325.06;5114583;28;20061;-87
2022/10/09 05:57:57;;;;;;;12.73;5.60;;;;;;;3.56;100.00;102259.88;5117160;28;20179;-88
2022/10/09 06:08:03;;;;;;;;;;;;;;;;;;;;;
2022/10/09 06:17:58;;;;;;;18.92;5.88;;;;;;;3.79;100.00;102278.47;5052510;28;20036;-87
2022/10/09 06:20:32;;;;;;;12.55;5.22;;;;;;;3.82;100.00;102278.19;5037100;28;20468;-88
2022/10/09 06:26:50;;;;;;;12.02;5.57;;;;;;;3.96;100.00;102283.19;4975220;28;20043;-89
2022/10/09 06:29:28;;;;;;;12.73;6.45;;;;;;;3.99;100.00;102274.84;5072902;28;20035;-90
2022/10/09 06:32:25;;;;;;;19.25;5.72;;;;;;;4.09;100.00;102282.06;5064640;28;20039;-89
2022/10/09 06:35:14;;;;;;;;;;;;;;;;;;;;;
2022/10/09 06:37:43;;;;;;;12.53;5.80;;;;;;;4.17;100.00;102263.44;5101293;28;20046;-89
2022/10/09 06:40:12;;;;;;;16.83;6.45;;;;;;;4.23;100.00;102268.25;5098594;28;20024;-87
2022/10/09 06:42:37;;;;;;;15.13;6.30;;;;;;;4.34;100.00;102276.22;5116036;28;20031;-87
2022/10/09 06:45:03;;;;;;;16.40;6.30;;;;;;;4.35;100.00;102266.28;5117869;27;20043;-87
2022/10/09 06:47:39;;;;;;;16.98;6.78;;;;;;;4.42;100.00;102270.13;5139831;27;20113;-86
2022/10/09 06:50:07;;;;;;;15.25;6.28;;;;;;;4.46;100.00;102271.56;5137808;27;20027;-86
2022/10/09 06:52:32;;;;;;;14.57;6.35;;;;;;;4.57;100.00;102271.41;5138539;27;20034;-86
2022/10/09 06:55:04;;;;;;;12.37;5.97;;;;;;;4.63;100.00;102271.84;5139069;27;20462;-86
2022/10/09 06:57:32;;;;;;;14.13;6.85;;;;;;;4.72;100.00;102273.66;5139476;27;20039;-86
2022/10/09 07:00:03;;;;;;;15.88;6.53;;;;;;;4.77;100.00;102273.25;5138209;27;20459;-86
2022/10/09 07:02:36;;;;;;;13.83;6.70;;;;;;;4.84;100.00;102266.31;5138925;27;20485;-87
2022/10/09 07:05:14;;;;;;;17.73;7.72;;;;;;;4.94;100.00;102271.69;5157147;27;20034;-87
2022/10/09 07:07:40;;;;;;;13.40;7.15;;;;;;;5.03;100.00;102279.72;5139666;27;20466;-87
2022/10/09 07:10:22;;;;;;;15.32;7.55;;;;;;;5.07;100.00;102266.84;5138399;27;20023;-87
2022/10/09 07:12:58;;;;;;;13.93;7.28;;;;;;;5.14;100.00;102272.50;5138112;27;20114;-87
2022/10/09 07:15:29;;;;;;;14.10;6.45;;;;;;;5.25;100.00;102267.78;5138773;27;20075;-86
2022/10/09 07:17:57;;;;;;;20.77;7.45;;;;;;;5.35;100.00;102275.00;5139302;27;20574;-86
2022/10/09 07:20:25;;;;;;;13.75;6.95;;;;;;;5.42;100.00;102273.44;5138034;27;20038;-87
2022/10/09 07:23:02;;;;;;;17.08;7.60;;;;;;;5.45;100.00;102262.38;5138341;27;20371;-87
2022/10/09 07:25:41;;;;;;;19.33;7.32;;;;;;;5.54;100.00;102266.88;5138108;27;20039;-86
2022/10/09 07:28:06;;;;;;;15.77;7.60;;;;;;;5.66;100.00;102278.31;5122941;27;20034;-87
2022/10/09 07:30:46;;;;;;;18.88;7.63;;;;;;;5.70;100.00;102266.25;5138192;27;20026;-87
2022/10/09 07:33:11;;;;;;;19.03;8.00;;;;;;;5.78;100.00;102262.78;5157116;27;20030;-87
2022/10/09 07:35:39;;;;;;;16.67;8.30;;;;;;;5.86;100.00;102264.75;5138068;27;20018;-86
2022/10/09 07:38:07;;;;;;;17.77;8.95;;;;;;;5.95;100.00;102266.56;5138112;27;20501;-87
2022/10/09 07:40:34;;;;;;;17.48;9.07;;;;;;;6.08;100.00;102267.06;5137832;27;20026;-87
2022/10/09 07:43:05;;;;;;;19.40;9.65;;;;;;;6.12;100.00;102260.38;5137807;27;20030;-87
2022/10/09 07:45:30;;;;;;;16.90;8.75;;;;;;;6.21;100.00;102255.91;5121004;27;20046;-86
2022/10/09 07:47:56;;;;;;;17.33;9.43;;;;;;;6.36;100.00;102269.72;5120408;27;20018;-87
2022/10/09 07:50:21;;;;;;;18.83;10.50;;;;;;;6.45;100.00;102266.13;5137450;27;20031;-87
2022/10/09 07:52:49;;;;;;;25.65;12.48;;;;;;;6.54;100.00;102255.41;5138291;27;20060;-86
2022/10/09 07:55:14;;;;;;;23.80;12.52;;;;;;;6.65;100.00;102274.88;5137498;27;20034;-87
2022/10/09 07:57:42;;;;;;;18.35;10.77;;;;;;;6.71;100.00;102265.34;5120540;27;20030;-86
2022/10/09 08:00:08;;;;;;;17.67;9.95;;;;;;;6.78;100.00;102258.31;5120436;27;20438;-86
2022/10/09 08:02:36;;;;;;;17.85;10.20;;;;;;;6.85;100.00;102256.69;5136761;27;20039;-88
2022/10/09 08:05:05;;;;;;;19.97;9.70;;;;;;;7.00;100.00;102273.16;5156440;27;20023;-87
2022/10/09 08:07:51;;;;;;;16.08;9.45;;;;;;;7.09;100.00;102262.44;5138174;27;20074;-87
2022/10/09 08:10:17;;;;;;;16.55;9.18;;;;;;;7.10;100.00;102247.94;5136823;27;20455;-87
2022/10/09 08:12:42;;;;;;;19.73;9.60;;;;;;;7.18;100.00;102243.44;5137241;27;20114;-87
2022/10/09 08:15:16;;;;;;;17.00;8.93;;;;;;;7.28;100.00;102247.88;5137305;27;20106;-87
2022/10/09 08:17:43;;;;;;;17.38;9.15;;;;;;;7.36;100.00;102246.06;5137176;27;20046;-87
2022/10/09 08:20:09;;;;;;;16.63;8.83;;;;;;;7.49;100.00;102251.03;5136902;27;20054;-87
2022/10/09 08:22:35;;;;;;;17.15;8.48;;;;;;;7.56;100.00;102248.56;5137248;27;20497;-87
2022/10/09 08:25:00;;;;;;;22.07;8.67;;;;;;;7.69;100.00;102243.56;5155550;27;20027;-87
2022/10/09 08:27:26;;;;;;;18.00;8.07;;;;;;;7.75;100.00;102243.91;5137711;27;20029;-87
2022/10/09 08:29:59;;;;;;;18.48;8.63;;;;;;;7.84;100.00;102245.63;5137616;27;20027;-87
2022/10/09 08:32:29;;;;;;;18.05;9.02;;;;;;;7.96;100.00;102249.72;5137931;27;20026;-87
2022/10/09 08:35:06;;;;;;;18.43;8.23;;;;;;;8.05;100.00;102246.03;5155639;27;20390;-88
2022/10/09 08:37:34;;;;;;;15.57;7.82;;;;;;;8.12;100.00;102238.13;5155207;27;20462;-87
2022/10/09 08:40:13;;;;;;;14.55;7.80;;;;;;;8.18;100.00;102226.66;5155440;27;20035;-87
2022/10/09 08:42:54;;;;;;;17.20;8.25;;;;;;;8.28;100.00;102229.19;5137357;27;20072;-87
2022/10/09 08:52:29;;;;;;;15.90;6.75;;;;;;;8.60;100.00;102217.59;5099222;28;20160;-87
2022/10/09 08:55:09;;;;;;;15.85;6.40;;;;;;;8.71;100.00;102216.41;5116615;28;20522;-87
2022/10/09 08:57:58;;;;;;;12.90;6.30;;;;;;;8.86;99.51;102213.00;5134264;28;20074;-87
2022/10/09 09:00:45;;;;;;;11.30;7.28;;;;;;;9.00;98.43;102211.50;5102606;28;20042;-87
2022/10/09 09:03:52;;;;;;;16.23;6.63;;;;;;;9.22;97.79;102215.34;5133239;28;20494;-87
2022/10/09 09:37:16;;;;;;;10.80;5.47;;;;;;;10.69;88.06;102169.47;5136844;27;20058;-87
2022/10/09 09:46:57;;;;;;;9.82;5.13;;;;;;;11.08;85.74;102151.25;5125944;27;20431;-87
2022/10/09 10:10:14;;;;;;;8.90;4.97;;;;;;;12.42;78.35;102123.72;5116551;28;20036;-88
2022/10/09 10:16:27;;;;;;;8.65;4.03;;;;;;;12.77;77.14;102123.75;5117137;28;20407;-87
2022/10/09 10:22:27;;;;;;;8.40;3.97;;;;;;;13.16;75.00;102108.72;5117781;28;20054;-87
2022/10/09 10:24:55;;;;;;;8.10;3.30;;;;;;;13.36;71.93;102117.03;5116071;28;20027;-85
2022/10/09 10:27:48;;;;;;;9.00;3.65;;;;;;;13.51;72.26;102109.53;5099180;28;20054;-85
2022/10/09 10:30:16;;;;;;;8.75;3.50;;;;;;;13.67;68.58;102107.47;5087504;28;20096;-86
2022/10/09 10:32:57;;;;;;;10.55;3.45;;;;;;;13.85;70.37;102102.28;5098522;28;20027;-84
2022/10/09 10:35:26;;;;;;;8.02;3.10;;;;;;;14.04;67.78;102097.91;5116646;28;20028;-84
2022/10/09 10:37:56;;;;;;;10.47;3.30;;;;;;;14.23;67.14;102091.81;5097946;28;20084;-84
2022/10/09 10:40:48;;;;;;;10.02;3.35;;;;;;;14.40;68.28;102079.44;5098139;28;20038;-85
2022/10/09 10:43:28;;;;;;;6.38;2.50;;;;;;;14.72;66.05;102087.84;5098526;28;20036;-85
2022/10/09 10:46:38;;;;;;;7.60;2.58;;;;;;;14.95;65.87;102081.88;5098294;28;20403;-85
2022/10/09 10:49:20;;;;;;;;;;;;;;;;;;;;;
2022/10/09 10:52:13;;;;;;;9.53;2.70;;;;;;;15.54;62.25;102074.50;5152910;27;20057;-86
2022/10/09 10:54:48;;;;;;;5.97;2.22;;;;;;;15.86;58.77;102055.41;5138884;27;20031;-85
2022/10/09 10:57:41;;;;;;;6.05;2.40;;;;;;;16.57;57.53;102061.53;5139149;27;20113;-86
2022/10/09 11:00:09;;;;;;;6.45;2.45;;;;;;;18.71;54.15;102052.19;5138755;27;20087;-86
2022/10/09 11:03:08;;;;;;;8.55;2.72;;;;;;;22.28;50.07;102046.19;5138746;27;20037;-85
2022/10/09 11:05:53;;;;;;;6.67;2.63;;;;;;;25.91;41.54;102043.66;5138935;27;20059;-86
2022/10/09 11:09:15;;;;;;;5.05;2.63;;;;;;;28.55;39.55;102032.56;5138768;27;20109;-86
2022/10/09 11:11:59;;;;;;;6.80;2.50;;;;;;;30.69;33.69;102035.34;5055654;28;20070;-85
2022/10/09 11:14:57;;;;;;;8.48;2.88;;;;;;;32.54;32.54;102032.16;5072855;28;20036;-83
2022/10/09 11:18:03;;;;;;;9.57;3.45;;;;;;;34.30;29.74;102023.13;5109440;27;20043;-83
2022/10/09 11:20:34;;;;;;;7.47;3.20;;;;;;;35.78;22.85;102015.25;5124580;27;20074;-83
2022/10/09 11:23:21;;;;;;;7.45;2.85;;;;;;;35.79;21.50;102008.44;5138463;27;20030;-83
2022/10/09 11:26:07;;;;;;;7.90;3.20;;;;;;;36.75;22.95;101993.47;5157229;27;20023;-83
2022/10/09 11:29:01;;;;;;;5.90;3.20;;;;;;;37.84;23.51;101986.06;5157603;27;20027;-83
2022/10/09 11:31:41;;;;;;;6.40;3.63;;;;;;;38.53;20.80;101977.53;5156927;27;20026;-83
2022/10/09 11:34:20;;;;;;;7.20;3.40;;;;;;;39.22;19.29;101975.69;5138357;27;20439;-82
2022/10/09 11:36:46;;;;;;;6.22;3.42;;;;;;;39.16;16.10;101963.06;5137309;27;20027;-86
2022/10/09 11:39:18;;;;;;;5.93;3.60;;;;;;;39.64;16.36;101966.84;5138537;27;20446;-86
2022/10/09 11:49:37;;;;;;;6.13;3.87;;;;;;;43.33;17.35;101951.47;5110663;28;20134;-87
2022/10/09 11:53:24;;;;;;;7.28;4.40;;;;;;;43.52;17.43;101939.53;5095001;28;20483;-87
2022/10/09 11:59:43;;;;;;;8.13;4.47;;;;;;;44.05;12.20;101926.06;5112958;28;20047;-87
2022/10/09 12:05:48;;;;;;;7.33;4.97;;;;;;;46.69;13.07;101894.28;5112801;28;20046;-88
2022/10/09 12:11:38;;;;;;;6.68;5.05;;;;;;;48.79;10.84;101867.47;5052254;28;20074;-88
2022/10/09 12:17:37;;;;;;;7.78;5.82;;;;;;;48.85;10.03;101864.84;5051967;28;20071;-88
2022/10/09 12:23:36;;;;;;;6.97;5.57;;;;;;;47.86;10.22;101842.22;5072129;28;20089;-88
2022/10/09 12:30:14;;;;;;;7.68;6.35;;;;;;;49.45;9.70;101833.22;5072094;28;20449;-88
2022/10/09 12:39:47;;;;;;;8.85;7.13;;;;;;;50.30;9.30;101803.81;5051595;28;20060;-88
2022/10/09 12:45:45;;;;;;;7.85;7.15;;;;;;;50.75;8.36;101801.63;5051432;28;20436;-88
2022/10/09 12:51:36;;;;;;;9.13;8.23;;;;;;;49.73;7.31;101769.25;5133674;27;20074;-88
2022/10/09 12:57:35;;;;;;;9.60;8.70;;;;;;;50.88;8.02;101758.97;5134736;28;20079;-88
2022/10/09 13:10:51;;;;;;;8.95;8.15;;;;;;;50.92;7.71;101738.63;5091688;28;20407;-88
2022/10/09 13:17:38;;;;;;;8.77;7.93;;;;;;;51.44;6.93;101735.97;5031806;28;20079;-89
2022/10/09 13:24:14;;;;;;;9.80;8.00;;;;;;;49.93;7.78;101726.47;5031489;28;20071;-88
2022/10/09 13:51:14;;;;;;;6.47;5.82;;;;;;;48.20;7.93;101669.06;5046038;28;20102;-87
2022/10/09 14:07:37;;;;;;;7.93;6.60;;;;;;;47.57;8.31;101641.78;5116568;28;20115;-87
2022/10/09 14:23:42;;;;;;;7.97;5.95;;;;;;;45.70;8.17;101605.03;5116482;28;20380;-87
2022/10/09 14:26:08;;;;;;;7.00;6.30;;;;;;;45.86;8.50;101603.47;5081835;28;20042;-86
2022/10/09 14:32:25;;;;;;;6.53;5.90;;;;;;;46.05;9.11;101594.03;5116162;28;20110;-86
2022/10/09 14:38:15;;;;;;;5.97;5.43;;;;;;;45.75;8.66;101589.38;5116671;28;20091;-87
2022/10/09 14:40:42;;;;;;;7.15;5.07;;;;;;;44.97;8.95;101583.97;5097878;28;20028;-87
2022/10/09 14:43:07;;;;;;;6.50;5.22;;;;;;;44.51;9.32;101580.69;5082097;28;20364;-87
2022/10/09 14:45:33;;;;;;;7.20;5.40;;;;;;;44.46;9.43;101573.41;5081010;28;20036;-86
2022/10/09 14:47:58;;;;;;;6.27;4.70;;;;;;;44.01;9.68;101576.53;5098293;28;20067;-86
2022/10/09 14:50:23;;;;;;;5.63;4.90;;;;;;;43.01;10.50;101568.00;5081248;28;20112;-86
2022/10/09 14:52:49;;;;;;;6.07;5.20;;;;;;;42.32;10.27;101569.81;5092511;27;20059;-87
2022/10/09 14:55:14;;;;;;;6.53;5.27;;;;;;;41.85;10.64;101565.19;5136672;27;20051;-86
2022/10/09 14:57:40;;;;;;;5.07;4.40;;;;;;;41.46;10.99;101566.19;5101376;27;20368;-86
2022/10/09 15:00:25;;;;;;;6.05;4.28;;;;;;;41.60;11.82;101556.75;5118419;27;20023;-86
2022/10/09 15:02:51;;;;;;;5.28;4.60;;;;;;;40.41;12.40;101553.25;5102109;27;20039;-86
2022/10/09 15:05:16;;;;;;;5.13;4.40;;;;;;;39.93;12.74;101545.88;5118039;27;20433;-85
2022/10/09 15:08:01;;;;;;;6.40;4.73;;;;;;;40.15;12.95;101546.75;5101907;27;20042;-85
2022/10/09 15:13:55;;;;;;;7.47;4.25;;;;;;;38.90;14.08;101542.13;5136451;27;20103;-86
2022/10/09 15:19:47;;;;;;;5.10;4.00;;;;;;;38.72;13.84;101544.84;5136090;27;20493;-85
2022/10/09 15:25:51;;;;;;;5.10;3.67;;;;;;;37.98;14.90;101523.88;5136028;27;20080;-85
2022/10/09 15:49:24;;;;;;;4.57;3.20;;;;;;;34.90;17.16;101505.69;5135223;27;20035;-88
2022/10/09 15:55:14;;;;;;;5.50;3.25;;;;;;;34.49;17.46;101499.44;5134284;27;20082;-85
2022/10/09 15:57:39;;;;;;;3.85;3.40;;;;;;;34.13;17.68;101489.22;5085065;27;20042;-86
2022/10/09 16:00:05;;;;;;;5.67;3.37;;;;;;;33.99;18.13;101487.66;5100696;27;20181;-85
2022/10/09 16:02:31;;;;;;;4.80;2.88;;;;;;;33.95;17.96;101480.31;5083226;27;20049;-84
2022/10/09 16:04:56;;;;;;;7.83;3.20;;;;;;;33.90;17.73;101478.56;5117034;27;20031;-85
2022/10/09 16:07:22;;;;;;;8.03;3.27;;;;;;;33.44;18.24;101475.22;5117296;27;20118;-85
2022/10/09 16:09:47;;;;;;;5.97;3.30;;;;;;;32.81;18.75;101466.13;5100142;27;20031;-85
2022/10/09 16:12:12;;;;;;;5.27;3.03;;;;;;;32.59;19.15;101472.19;5116870;27;20360;-85
2022/10/09 16:14:41;;;;;;;3.83;3.00;;;;;;;31.99;19.28;101466.94;5116654;27;20054;-84
2022/10/09 16:17:06;;;;;;;5.65;2.75;;;;;;;31.46;19.95;101466.63;5116547;27;20069;-84
2022/10/09 16:19:32;;;;;;;5.37;3.00;;;;;;;31.15;20.90;101462.25;5116697;27;20062;-85
2022/10/09 16:21:57;;;;;;;7.40;2.80;;;;;;;30.53;20.89;101466.56;5099629;27;20118;-85
2022/10/09 16:24:23;;;;;;;4.80;2.90;;;;;;;29.93;21.28;101460.84;5099773;27;20031;-85
2022/10/09 16:26:49;;;;;;;5.03;2.78;;;;;;;29.59;22.38;101470.91;5100444;27;20031;-84
2022/10/09 16:29:15;;;;;;;3.57;2.50;;;;;;;28.92;22.80;101460.97;5135365;27;20031;-85
2022/10/09 16:31:41;;;;;;;4.50;2.60;;;;;;;28.20;23.84;101461.06;5116579;27;20031;-86
2022/10/09 16:34:07;;;;;;;5.33;2.60;;;;;;;27.39;24.41;101460.00;5099489;27;20378;-85
2022/10/09 16:36:32;;;;;;;3.78;2.42;;;;;;;26.70;25.41;101462.91;5135237;27;20027;-85
2022/10/09 16:38:58;;;;;;;4.90;2.47;;;;;;;25.93;26.31;101465.13;5116422;27;20483;-86
2022/10/09 16:41:24;;;;;;;4.97;2.13;;;;;;;24.80;28.08;101470.41;5134731;27;20058;-85
2022/10/09 16:43:52;;;;;;;5.32;2.53;;;;;;;23.58;30.15;101462.16;5116140;27;20424;-85
2022/10/09 16:46:21;;;;;;;3.60;2.20;;;;;;;22.48;32.13;101470.41;5116364;28;20085;-85
2022/10/09 16:48:48;;;;;;;6.20;2.00;;;;;;;21.61;33.43;101477.63;5116836;27;20027;-85
2022/10/09 16:54:23;;;;;;;5.70;2.38;;;;;;;20.13;36.66;101482.22;5051311;28;20055;-85
2022/10/09 16:56:49;;;;;;;4.13;2.27;;;;;;;19.55;37.54;101484.72;5114620;28;20043;-85
2022/10/09 16:59:14;;;;;;;5.67;1.70;;;;;;;19.14;38.91;101483.47;5095579;28;20027;-85
2022/10/09 17:01:44;;;;;;;5.73;2.03;;;;;;;18.69;39.65;101486.19;5096386;28;20081;-85
2022/10/09 17:04:10;;;;;;;4.43;2.00;;;;;;;18.29;40.68;101472.69;5096060;28;20273;-85
2022/10/09 17:06:35;;;;;;;5.57;2.00;;;;;;;18.02;41.31;101492.63;5114087;28;20043;-84
2022/10/09 17:09:01;;;;;;;5.20;1.80;;;;;;;17.65;42.07;101490.31;5095984;28;20406;-84
2022/10/09 17:14:49;;;;;;;4.65;2.10;;;;;;;17.08;43.66;101488.41;5113825;28;20173;-84
2022/10/09 17:21:11;;;;;;;4.10;1.73;;;;;;;16.51;43.23;101489.09;5113642;28;20533;-84
2022/10/09 17:27:26;;;;;;;10.15;2.40;;;;;;;15.90;45.71;101497.50;5113778;28;20081;-84
2022/10/09 17:33:54;;;;;;;6.20;2.50;;;;;;;15.36;48.15;101503.75;5113933;28;20034;-84
2022/10/09 17:39:42;;;;;;;5.22;2.30;;;;;;;14.83;54.64;101507.16;5117818;28;20025;-84
2022/10/09 17:45:41;;;;;;;6.07;2.30;;;;;;;14.41;54.77;101499.59;5117638;28;20548;-83
2022/10/09 17:58:58;;;;;;;6.97;2.70;;;;;;;13.56;60.99;101497.34;5135245;27;20427;-84
2022/10/09 18:15:11;;;;;;;6.22;2.03;;;;;;;12.97;58.29;101481.03;5116099;28;20040;-84
2022/10/09 18:38:32;;;;;;;5.97;2.10;;;;;;;12.59;57.57;101468.16;5115522;28;20065;-83
2022/10/09 19:05:23;;;;;;;7.53;2.90;;;;;;;12.10;59.31;101459.47;5136756;27;20082;-83
2022/10/09 19:08:05;;;;;;;7.32;3.00;;;;;;;12.02;60.60;101455.09;5118143;27;20030;-83
2022/10/09 19:14:14;;;;;;;7.65;2.80;;;;;;;11.96;61.10;101449.66;5136303;27;20045;-83
2022/10/09 19:20:06;;;;;;;5.55;2.53;;;;;;;11.80;62.38;101442.75;5136428;27;20111;-83
2022/10/09 19:26:22;;;;;;;8.20;3.20;;;;;;;11.73;61.30;101448.16;5136350;27;20113;-83
2022/10/09 19:32:42;;;;;;;6.80;2.60;;;;;;;11.59;62.34;101442.72;5136188;27;20497;-83
2022/10/09 19:38:42;;;;;;;8.15;2.80;;;;;;;11.42;63.38;101433.28;5136057;27;20087;-83
2022/10/09 19:41:13;;;;;;;7.17;2.93;;;;;;;11.39;64.54;101433.69;5135555;27;20050;-84
2022/10/09 19:43:39;;;;;;;8.77;3.05;;;;;;;11.35;64.83;101427.84;5117760;27;20027;-84
2022/10/09 19:46:19;;;;;;;7.80;2.70;;;;;;;11.38;64.39;101438.31;5117688;27;20447;-83
2022/10/09 19:52:19;;;;;;;6.30;2.80;;;;;;;11.21;64.66;101428.88;5135592;27;20509;-83
2022/10/09 19:58:21;;;;;;;7.05;3.10;;;;;;;11.17;64.25;101435.75;5135393;27;20390;-83
2022/10/09 20:04:22;;;;;;;4.38;2.80;;;;;;;10.99;66.42;101422.75;5133905;27;20107;-84
2022/10/09 20:06:48;;;;;;;6.70;2.97;;;;;;;10.99;65.90;101434.44;5099865;27;20035;-83
2022/10/09 20:09:20;;;;;;;9.65;3.08;;;;;;;10.98;67.01;101434.63;5117243;27;20511;-83
2022/10/09 20:11:56;;;;;;;5.60;2.40;;;;;;;10.87;66.18;101430.63;5100696;27;20039;-83
2022/10/09 20:14:24;;;;;;;9.15;3.03;;;;;;;10.81;67.30;101431.44;5116543;27;20027;-83
2022/10/09 20:16:50;;;;;;;6.15;2.80;;;;;;;10.77;68.86;101427.47;5117303;27;20476;-83
2022/10/09 20:19:16;;;;;;;6.17;2.50;;;;;;;10.77;68.01;101438.31;5116510;27;20474;-83
2022/10/09 20:21:54;;;;;;;8.40;2.75;;;;;;;10.70;67.85;101433.72;5099686;27;20035;-83
2022/10/09 20:24:19;;;;;;;9.50;2.90;;;;;;;10.64;68.52;101422.81;5117059;27;20054;-84
2022/10/09 20:26:44;;;;;;;6.60;3.17;;;;;;;10.61;67.86;101423.22;5099487;27;20305;-84
2022/10/09 20:37:01;;;;;;;3.40;2.50;;;;;;;10.51;67.08;101424.44;5134440;27;20031;-83
2022/10/09 20:46:33;;;;;;;4.43;2.40;;;;;;;10.37;67.31;101411.00;5134722;27;20046;-84
2022/10/09 20:53:11;;;;;;;7.10;3.10;;;;;;;10.39;67.77;101412.44;5134978;27;20033;-83
2022/10/09 20:59:03;;;;;;;4.83;2.90;;;;;;;10.31;68.77;101408.00;5134832;28;20089;-84
2022/10/09 21:01:28;;;;;;;8.25;2.80;;;;;;;10.27;69.83;101393.16;5099408;28;20035;-83
2022/10/09 21:07:49;;;;;;;3.20;2.40;;;;;;;10.23;68.40;101396.47;5134836;28;20142;-83
2022/10/09 21:10:15;;;;;;;6.75;2.60;;;;;;;10.14;70.14;101382.22;5136671;27;20077;-83
2022/10/09 21:12:43;;;;;;;4.95;2.90;;;;;;;10.15;70.34;101382.03;5120776;27;20055;-84
2022/10/09 21:15:09;;;;;;;7.17;2.70;;;;;;;10.17;70.62;101387.25;5120109;27;20058;-83
2022/10/09 21:17:35;;;;;;;5.95;2.60;;;;;;;10.13;70.56;101386.00;5138886;27;20027;-85
2022/10/09 21:20:00;;;;;;;6.55;3.00;;;;;;;10.11;71.08;101382.63;5120582;27;20076;-86
2022/10/09 21:23:19;;;;;;;6.27;2.50;;;;;;;10.10;69.71;101389.94;5120641;27;20038;-86
2022/10/09 21:29:09;;;;;;;5.87;2.90;;;;;;;10.05;71.27;101397.81;5138774;27;20034;-86
2022/10/09 21:35:30;;;;;;;5.67;2.87;;;;;;;9.99;70.41;101391.34;5138447;27;20050;-85
2022/10/09 21:42:01;;;;;;;6.95;3.13;;;;;;;10.00;70.00;101382.16;5138147;27;20117;-85
2022/10/09 21:44:29;;;;;;;10.73;3.43;;;;;;;9.93;71.18;101375.84;5119860;27;20031;-86
2022/10/09 21:46:54;;;;;;;6.78;3.00;;;;;;;9.97;71.88;101387.16;5103162;27;20034;-85
2022/10/09 22:03:17;;;;;;;4.38;2.92;;;;;;;9.79;72.39;101363.25;5137515;27;20071;-86
2022/10/09 22:09:46;;;;;;;5.77;3.20;;;;;;;9.68;72.11;101372.75;5117322;28;20074;-86
2022/10/09 22:15:47;;;;;;;6.72;3.33;;;;;;;9.59;73.19;101354.97;5117068;28;20046;-86
2022/10/09 22:21:35;;;;;;;7.57;3.50;;;;;;;9.55;74.33;101353.69;5116868;28;20544;-85
2022/10/09 22:24:01;;;;;;;10.00;3.80;;;;;;;9.52;74.87;101352.19;5081937;28;20032;-86
2022/10/09 22:26:26;;;;;;;5.28;3.38;;;;;;;9.46;74.71;101347.56;5081324;28;20035;-85
2022/10/09 22:28:52;;;;;;;4.57;3.20;;;;;;;9.45;75.00;101343.19;5116782;28;20028;-85
2022/10/09 22:31:23;;;;;;;8.67;3.90;;;;;;;9.44;74.83;101349.66;5098809;28;20067;-86
2022/10/09 22:37:11;;;;;;;6.47;3.60;;;;;;;9.41;74.59;101339.22;5021989;28;20049;-86
2022/10/09 22:39:37;;;;;;;6.30;3.03;;;;;;;9.35;75.45;101332.69;5082367;28;20028;-86
2022/10/09 22:42:02;;;;;;;7.37;3.37;;;;;;;9.27;75.42;101322.84;5098564;28;20387;-86
2022/10/09 22:44:28;;;;;;;5.72;3.45;;;;;;;9.32;75.69;101334.97;5099147;28;20069;-85
2022/10/09 22:46:53;;;;;;;8.80;3.53;;;;;;;9.30;76.24;101333.28;5098881;28;20455;-85
2022/10/09 22:49:24;;;;;;;4.67;3.40;;;;;;;9.27;75.58;101324.69;5116713;28;20426;-85
2022/10/09 22:51:50;;;;;;;6.72;3.97;;;;;;;9.25;76.31;101324.91;5098234;28;20024;-85
2022/10/09 22:54:17;;;;;;;8.03;3.40;;;;;;;9.27;76.16;101322.00;5097858;28;20058;-85
2022/10/09 22:56:44;;;;;;;5.65;4.00;;;;;;;9.17;76.05;101319.63;5116834;28;20035;-85
2022/10/09 22:59:32;;;;;;;6.97;3.47;;;;;;;9.13;75.71;101321.88;5116223;28;20039;-85
2022/10/09 23:02:01;;;;;;;9.18;3.70;;;;;;;9.16;77.07;101326.06;5098673;28;20031;-85
2022/10/09 23:04:27;;;;;;;8.30;3.77;;;;;;;9.11;77.05;101325.81;5125009;27;21670;-86
2022/10/09 23:06:55;;;;;;;8.40;3.83;;;;;;;9.13;77.24;101330.00;5118000;27;20035;-85
2022/10/09 23:09:25;;;;;;;7.00;3.50;;;;;;;9.13;77.57;101327.28;5118244;27;20023;-85
2022/10/09 23:11:51;;;;;;;8.15;3.25;;;;;;;9.07;77.25;101321.81;5118474;27;20377;-86
2022/10/09 23:14:17;;;;;;;5.72;3.42;;;;;;;9.05;78.17;101327.44;5136782;27;20098;-86
2022/10/09 23:17:24;;;;;;;11.00;3.80;;;;;;;9.07;76.41;101328.06;5137100;27;20035;-85
2022/10/09 23:40:28;;;;;;;7.50;3.80;;;;;;;8.77;78.49;101305.72;5134816;27;20042;-85
2022/10/09 23:42:54;;;;;;;7.57;4.25;;;;;;;8.77;78.72;101309.25;5117679;27;20034;-85
2022/10/09 23:45:19;;;;;;;12.03;4.53;;;;;;;8.73;78.91;101309.84;5118347;27;20052;-85
2022/10/09 23:47:54;;;;;;;8.53;4.13;;;;;;;8.65;79.60;101296.41;5117928;27;20032;-85
2022/10/09 23:53:42;;;;;;;10.20;3.95;;;;;;;8.55;80.02;101285.94;5072622;28;20098;-85
2022/10/09 23:59:33;;;;;;;10.70;4.50;;;;;;;8.55;80.64;101308.38;5072988;28;20526;-85
